createdAt,value
2024-04-22T00:00:54.905Z,2.1
2024-04-22T00:01:55.258Z,2.1
2024-04-22T00:02:55.261Z,2.1
2024-04-22T00:03:55.334Z,2.1
2024-04-22T00:04:55.517Z,2.1
2024-04-22T00:05:55.599Z,2.1
2024-04-22T00:06:55.746Z,2.1
2024-04-22T00:07:55.907Z,2.1
2024-04-22T00:08:56.011Z,2.1
2024-04-22T00:09:56.122Z,2.1
2024-04-22T00:10:56.729Z,2.1
2024-04-22T00:11:56.342Z,2.1
2024-04-22T00:12:56.497Z,1.7
2024-04-22T00:13:56.560Z,1.7
2024-04-22T00:14:56.664Z,1.7
2024-04-22T00:15:56.797Z,1.7
2024-04-22T00:16:56.937Z,1.7
2024-04-22T00:17:57.087Z,1.7
2024-04-22T00:18:57.147Z,1.7
2024-04-22T00:19:57.319Z,1.7
2024-04-22T00:20:57.734Z,1.7
2024-04-22T00:21:57.836Z,1.7
2024-04-22T00:22:58.045Z,1.7
2024-04-22T00:23:58.176Z,1.7
2024-04-22T00:24:58.320Z,1.7
2024-04-22T00:25:58.528Z,1.7
2024-04-22T00:26:58.643Z,1.7
2024-04-22T00:27:58.739Z,1.7
2024-04-22T00:28:59.019Z,1.7
2024-04-22T00:29:59.164Z,1.7
2024-04-22T00:30:59.271Z,1.7
2024-04-22T00:31:59.393Z,1.7
2024-04-22T00:32:59.560Z,1.7
2024-04-22T00:33:59.606Z,1.7
2024-04-22T00:34:59.714Z,1.7
2024-04-22T00:35:59.821Z,1.7
2024-04-22T00:36:59.992Z,1.7
2024-04-22T00:38:00.084Z,1.7
2024-04-22T00:39:00.415Z,1.7
2024-04-22T00:40:00.522Z,1.7
2024-04-22T00:41:00.653Z,1.7
2024-04-22T00:42:00.928Z,1.7
2024-04-22T00:43:01.091Z,1.7
2024-04-22T00:44:01.259Z,1.7
2024-04-22T00:45:01.327Z,1.7
2024-04-22T00:46:01.464Z,1.7
2024-04-22T00:47:01.628Z,1.7
2024-04-22T00:48:01.730Z,1.7
2024-04-22T00:49:01.809Z,1.7
2024-04-22T00:50:01.914Z,1.7
2024-04-22T00:51:02.071Z,1.7
2024-04-22T00:52:02.300Z,1.7
2024-04-22T00:53:02.382Z,1.7
2024-04-22T00:54:02.497Z,1.7
2024-04-22T00:55:02.580Z,1.7
2024-04-22T00:56:02.656Z,1.7
2024-04-22T00:57:03.280Z,1.7
2024-04-22T00:58:02.874Z,1.7
2024-04-22T00:59:03.040Z,1.7
2024-04-22T01:00:03.290Z,1.7
2024-04-22T01:01:03.417Z,1.7
2024-04-22T01:02:03.515Z,1.7
2024-04-22T01:03:03.669Z,1.7
2024-04-22T01:04:03.762Z,1.7
2024-04-22T01:05:03.983Z,1.7
2024-04-22T01:06:04.008Z,1.7
2024-04-22T01:07:04.113Z,1.7
2024-04-22T01:08:04.219Z,1.7
2024-04-22T01:09:04.369Z,1.7
2024-04-22T01:10:04.830Z,1.7
2024-04-22T01:11:04.870Z,1.7
2024-04-22T01:12:04.907Z,1.7
2024-04-22T01:13:05.036Z,1.7
2024-04-22T01:14:05.181Z,1.7
2024-04-22T01:15:05.550Z,1.7
2024-04-22T01:16:05.453Z,1.7
2024-04-22T01:17:05.516Z,1.7
2024-04-22T01:18:05.718Z,1.7
2024-04-22T01:19:05.735Z,1.7
2024-04-22T01:20:05.920Z,1.7
2024-04-22T01:21:05.992Z,1.7
2024-04-22T01:22:06.118Z,1.6
2024-04-22T01:23:06.209Z,1.2
2024-04-22T01:24:06.371Z,1.2
2024-04-22T01:25:06.559Z,1.2
2024-04-22T01:26:06.692Z,1.2
2024-04-22T01:27:06.854Z,1.2
2024-04-22T01:28:07.045Z,1.2
2024-04-22T01:29:07.116Z,1.2
2024-04-22T01:30:07.226Z,1.2
2024-04-22T01:31:07.401Z,1.2
2024-04-22T01:32:07.459Z,1.2
2024-04-22T01:33:07.660Z,1.2
2024-04-22T01:34:07.702Z,1.2
2024-04-22T01:35:07.988Z,1.2
2024-04-22T01:36:08.100Z,1.2
2024-04-22T01:37:08.228Z,1.2
2024-04-22T01:38:08.346Z,1.2
2024-04-22T01:39:08.456Z,1.2
2024-04-22T01:40:08.579Z,1.2
2024-04-22T01:41:08.671Z,1.2
2024-04-22T01:42:08.780Z,1.2
2024-04-22T01:43:08.952Z,1.2
2024-04-22T01:44:08.998Z,1.2
2024-04-22T01:45:09.105Z,1.2
2024-04-22T01:46:09.355Z,1.2
2024-04-22T01:47:09.389Z,1.2
2024-04-22T01:48:09.486Z,1.2
2024-04-22T01:49:09.627Z,1.2
2024-04-22T01:50:09.704Z,1.2
2024-04-22T01:51:09.814Z,1.2
2024-04-22T01:52:09.954Z,1.2
2024-04-22T01:53:10.195Z,1.2
2024-04-22T01:54:10.493Z,1.2
2024-04-22T01:55:11.433Z,1.2
2024-04-22T01:56:10.766Z,1.2
2024-04-22T01:57:10.825Z,1.2
2024-04-22T01:58:11.050Z,1.2
2024-04-22T01:59:11.144Z,1.2
2024-04-22T02:00:11.303Z,1.2
2024-04-22T02:01:11.680Z,1.2
2024-04-22T02:02:11.601Z,1.2
2024-04-22T02:03:11.752Z,1.2
2024-04-22T02:04:11.842Z,1.2
2024-04-22T02:05:12.201Z,1.2
2024-04-22T02:06:12.205Z,1.3
2024-04-22T02:07:12.353Z,1.7
2024-04-22T02:08:12.431Z,1.7
2024-04-22T02:09:12.584Z,1.7
2024-04-22T02:10:17.396Z,1.7
2024-04-22T02:11:12.919Z,1.7
2024-04-22T02:12:12.961Z,1.7
2024-04-22T02:13:13.125Z,1.7
2024-04-22T02:14:14.241Z,1.7
2024-04-22T02:15:13.343Z,1.7
2024-04-22T02:16:13.644Z,1.7
2024-04-22T02:17:13.790Z,1.7
2024-04-22T02:18:13.943Z,1.7
2024-04-22T02:19:14.072Z,1.7
2024-04-22T02:20:14.254Z,1.7
2024-04-22T02:21:14.363Z,1.7
2024-04-22T02:22:14.479Z,1.7
2024-04-22T02:23:14.631Z,1.7
2024-04-22T02:24:14.789Z,1.7
2024-04-22T02:25:14.904Z,1.7
2024-04-22T02:26:15.025Z,1.7
2024-04-22T02:27:15.156Z,1.7
2024-04-22T02:28:15.349Z,1.7
2024-04-22T02:29:15.535Z,1.7
2024-04-22T02:30:15.693Z,1.7
2024-04-22T02:31:15.845Z,1.7
2024-04-22T02:32:16.071Z,1.7
2024-04-22T02:33:16.354Z,1.7
2024-04-22T02:34:16.450Z,1.7
2024-04-22T02:35:16.703Z,1.7
2024-04-22T02:36:16.916Z,1.7
2024-04-22T02:37:17.033Z,1.7
2024-04-22T02:38:17.132Z,1.7
2024-04-22T02:39:17.250Z,1.7
2024-04-22T02:40:17.351Z,1.7
2024-04-22T02:41:17.505Z,1.7
2024-04-22T02:42:17.560Z,1.7
2024-04-22T02:43:17.668Z,1.7
2024-04-22T02:44:17.888Z,1.7
2024-04-22T02:45:18.048Z,1.7
2024-04-22T02:46:18.248Z,1.7
2024-04-22T02:47:18.344Z,1.7
2024-04-22T02:48:18.433Z,1.7
2024-04-22T02:49:18.543Z,1.7
2024-04-22T02:50:18.636Z,1.7
2024-04-22T02:51:18.789Z,1.7
2024-04-22T02:52:18.988Z,1.7
2024-04-22T02:53:19.006Z,1.7
2024-04-22T02:54:19.324Z,1.7
2024-04-22T02:55:19.575Z,1.7
2024-04-22T02:56:19.700Z,1.7
2024-04-22T02:57:20.059Z,1.7
2024-04-22T02:58:20.205Z,1.7
2024-04-22T02:59:20.483Z,1.6
2024-04-22T03:00:20.645Z,1.2
2024-04-22T03:01:20.778Z,1.2
2024-04-22T03:02:20.963Z,1.2
2024-04-22T03:03:21.038Z,1.2
2024-04-22T03:04:21.135Z,1.2
2024-04-22T03:05:21.240Z,1.2
2024-04-22T03:06:21.398Z,1.2
2024-04-22T03:07:21.548Z,1.2
2024-04-22T03:08:21.826Z,1.2
2024-04-22T03:09:22.348Z,1.2
2024-04-22T03:10:21.966Z,1.2
2024-04-22T03:11:22.145Z,1.2
2024-04-22T03:12:22.252Z,1.2
2024-04-22T03:13:22.327Z,1.2
2024-04-22T03:14:22.413Z,1.2
2024-04-22T03:15:22.552Z,1.2
2024-04-22T03:16:22.668Z,1.2
2024-04-22T03:17:22.856Z,1.2
2024-04-22T03:18:22.971Z,1.2
2024-04-22T03:19:23.125Z,1.2
2024-04-22T03:20:24.493Z,1.2
2024-04-22T03:21:23.489Z,1.2
2024-04-22T03:22:23.608Z,1.2
2024-04-22T03:23:23.703Z,1.2
2024-04-22T03:24:23.763Z,1.2
2024-04-22T03:25:23.948Z,1.2
2024-04-22T03:26:23.981Z,1.2
2024-04-22T03:27:24.113Z,1.2
2024-04-22T03:28:24.203Z,1.2
2024-04-22T03:29:24.317Z,1.2
2024-04-22T03:30:24.474Z,1.2
2024-04-22T03:31:24.666Z,1.2
2024-04-22T03:32:24.862Z,1.2
2024-04-22T03:33:24.903Z,1.2
2024-04-22T03:34:25.038Z,1.2
2024-04-22T03:35:25.427Z,1.2
2024-04-22T03:36:25.529Z,1.2
2024-04-22T03:37:25.660Z,1.2
2024-04-22T03:38:25.741Z,1.2
2024-04-22T03:39:25.933Z,1.2
2024-04-22T03:40:26.118Z,1.2
2024-04-22T03:41:26.279Z,1.2
2024-04-22T03:42:26.385Z,1.2
2024-04-22T03:43:26.534Z,1.6
2024-04-22T03:44:26.655Z,1.7
2024-04-22T03:45:26.760Z,1.7
2024-04-22T03:46:27.189Z,1.7
2024-04-22T03:47:27.347Z,1.7
2024-04-22T03:48:27.461Z,1.7
2024-04-22T03:49:27.650Z,1.7
2024-04-22T03:50:27.770Z,1.7
2024-04-22T03:51:27.883Z,1.7
2024-04-22T03:52:28.059Z,1.7
2024-04-22T03:53:28.193Z,1.7
2024-04-22T03:54:28.258Z,1.7
2024-04-22T03:55:28.387Z,1.7
2024-04-22T03:56:28.472Z,1.7
2024-04-22T03:57:28.680Z,1.7
2024-04-22T03:58:28.883Z,1.7
2024-04-22T03:59:28.896Z,1.7
2024-04-22T04:00:29.018Z,1.7
2024-04-22T04:01:29.474Z,1.7
2024-04-22T04:02:29.514Z,1.7
2024-04-22T04:03:29.662Z,1.7
2024-04-22T04:04:29.883Z,1.7
2024-04-22T04:05:29.940Z,1.7
2024-04-22T04:06:30.036Z,1.7
2024-04-22T04:07:30.303Z,1.7
2024-04-22T04:08:30.529Z,1.7
2024-04-22T04:09:30.708Z,1.7
2024-04-22T04:10:30.795Z,1.7
2024-04-22T04:11:33.405Z,1.7
2024-04-22T04:12:31.040Z,1.7
2024-04-22T04:13:31.300Z,1.7
2024-04-22T04:14:31.304Z,1.7
2024-04-22T04:15:31.412Z,1.7
2024-04-22T04:16:31.477Z,1.7
2024-04-22T04:17:31.710Z,2.1
2024-04-22T04:18:31.779Z,2.1
2024-04-22T04:19:31.897Z,2.1
2024-04-22T04:20:32.057Z,2.1
2024-04-22T04:21:32.215Z,2.1
2024-04-22T04:22:32.297Z,2.1
2024-04-22T04:23:32.856Z,2.1
2024-04-22T04:24:32.925Z,2.6
2024-04-22T04:25:33.276Z,2.6
2024-04-22T04:26:33.421Z,2.6
2024-04-22T04:27:36.133Z,2.1
2024-04-22T04:28:33.805Z,2.1
2024-04-22T04:29:33.849Z,2.1
2024-04-22T04:30:33.959Z,2.1
2024-04-22T04:31:34.103Z,2.1
2024-04-22T04:32:34.372Z,2.1
2024-04-22T04:33:34.337Z,2.1
2024-04-22T04:34:34.465Z,2.1
2024-04-22T04:35:34.574Z,2.1
2024-04-22T04:36:34.675Z,2.1
2024-04-22T04:37:34.886Z,2.1
2024-04-22T04:38:34.914Z,2.1
2024-04-22T04:39:35.454Z,2.1
2024-04-22T04:40:35.256Z,2.1
2024-04-22T04:41:35.359Z,2.1
2024-04-22T04:42:35.516Z,2.1
2024-04-22T04:43:35.732Z,2.1
2024-04-22T04:44:35.831Z,2.1
2024-04-22T04:45:35.994Z,2.1
2024-04-22T04:46:36.284Z,2.1
2024-04-22T04:47:36.435Z,2.1
2024-04-22T04:48:36.483Z,2.1
2024-04-22T04:49:36.630Z,2.1
2024-04-22T04:50:36.709Z,2.1
2024-04-22T04:51:36.797Z,2.1
2024-04-22T04:52:37.032Z,2.1
2024-04-22T04:53:37.476Z,2.1
2024-04-22T04:54:37.793Z,2.1
2024-04-22T04:55:37.908Z,2.1
2024-04-22T04:56:38.010Z,2.1
2024-04-22T04:57:38.220Z,2.1
2024-04-22T04:58:38.355Z,2.1
2024-04-22T04:59:38.456Z,2.1
2024-04-22T05:00:38.570Z,2.1
2024-04-22T05:01:39.059Z,2.1
2024-04-22T05:02:39.131Z,2.1
2024-04-22T05:03:39.495Z,2.1
2024-04-22T05:04:39.609Z,2.1
2024-04-22T05:05:39.603Z,2.1
2024-04-22T05:06:39.759Z,2.6
2024-04-22T05:07:39.895Z,2.6
2024-04-22T05:08:40.000Z,2.6
2024-04-22T05:09:40.145Z,2.6
2024-04-22T05:10:40.297Z,2.6
2024-04-22T05:11:40.385Z,2.6
2024-04-22T05:12:40.473Z,2.6
2024-04-22T05:13:40.745Z,2.6
2024-04-22T05:14:40.773Z,2.6
2024-04-22T05:15:40.899Z,2.6
2024-04-22T05:16:41.013Z,3
2024-04-22T05:17:41.224Z,3
2024-04-22T05:18:43.965Z,3
2024-04-22T05:19:41.504Z,3
2024-04-22T05:20:41.643Z,3
2024-04-22T05:21:41.795Z,3
2024-04-22T05:22:41.937Z,3
2024-04-22T05:23:42.078Z,3
2024-04-22T05:24:42.182Z,3
2024-04-22T05:25:42.338Z,3
2024-04-22T05:26:42.395Z,3
2024-04-22T05:27:42.517Z,3
2024-04-22T05:28:42.727Z,3
2024-04-22T05:29:42.779Z,3
2024-04-22T05:30:42.944Z,3
2024-04-22T05:31:43.222Z,3
2024-04-22T05:32:43.404Z,3
2024-04-22T05:33:43.528Z,3
2024-04-22T05:34:43.703Z,3
2024-04-22T05:35:43.892Z,3
2024-04-22T05:36:44.001Z,3
2024-04-22T05:37:44.241Z,3
2024-04-22T05:38:44.514Z,3
2024-04-22T05:39:46.123Z,3
2024-04-22T05:40:44.631Z,3
2024-04-22T05:41:44.856Z,3
2024-04-22T05:42:44.960Z,3
2024-04-22T05:43:45.158Z,3
2024-04-22T05:44:45.281Z,3
2024-04-22T05:45:45.394Z,3
2024-04-22T05:46:45.741Z,3
2024-04-22T05:47:45.835Z,3
2024-04-22T05:48:45.917Z,3
2024-04-22T05:49:46.195Z,3
2024-04-22T05:50:46.292Z,3
2024-04-22T05:51:46.396Z,3
2024-04-22T05:52:46.622Z,3.4
2024-04-22T05:53:46.666Z,3.4
2024-04-22T05:54:46.833Z,3.4
2024-04-22T05:55:47.005Z,3.4
2024-04-22T05:56:47.039Z,3.4
2024-04-22T05:57:49.123Z,3.8
2024-04-22T05:58:47.265Z,3.8
2024-04-22T05:59:47.367Z,3.8
2024-04-22T06:00:47.629Z,3.8
2024-04-22T06:01:47.720Z,3.8
2024-04-22T06:02:47.873Z,3.8
2024-04-22T06:03:47.970Z,3.8
2024-04-22T06:04:48.150Z,3.8
2024-04-22T06:05:48.468Z,3.8
2024-04-22T06:06:48.279Z,3.8
2024-04-22T06:07:48.439Z,3.8
2024-04-22T06:08:48.498Z,3.8
2024-04-22T06:09:48.608Z,3.8
2024-04-22T06:10:49.039Z,3.8
2024-04-22T06:11:53.404Z,3.8
2024-04-22T06:12:49.093Z,3.8
2024-04-22T06:13:49.233Z,3.8
2024-04-22T06:14:49.352Z,3.8
2024-04-22T06:15:49.482Z,3.8
2024-04-22T06:16:49.713Z,3.8
2024-04-22T06:17:49.744Z,4.2
2024-04-22T06:18:49.960Z,4.2
2024-04-22T06:19:50.187Z,4.2
2024-04-22T06:20:50.269Z,4.2
2024-04-22T06:21:50.364Z,4.2
2024-04-22T06:22:50.598Z,4.2
2024-04-22T06:23:50.747Z,4.2
2024-04-22T06:24:50.852Z,4.2
2024-04-22T06:25:51.018Z,4.2
2024-04-22T06:26:51.074Z,4.2
2024-04-22T06:27:51.189Z,4.2
2024-04-22T06:28:51.359Z,4.6
2024-04-22T06:29:51.444Z,4.6
2024-04-22T06:30:51.552Z,4.6
2024-04-22T06:31:51.970Z,4.6
2024-04-22T06:32:51.816Z,4.6
2024-04-22T06:33:51.928Z,4.6
2024-04-22T06:34:52.118Z,4.6
2024-04-22T06:35:52.163Z,4.6
2024-04-22T06:36:52.258Z,4.6
2024-04-22T06:37:52.440Z,4.6
2024-04-22T06:38:52.528Z,4.9
2024-04-22T06:39:52.888Z,5
2024-04-22T06:40:53.016Z,5
2024-04-22T06:41:53.217Z,5
2024-04-22T06:42:53.329Z,5
2024-04-22T06:43:53.461Z,5
2024-04-22T06:44:53.536Z,5
2024-04-22T06:45:53.656Z,5
2024-04-22T06:46:53.880Z,5
2024-04-22T06:47:54.030Z,5
2024-04-22T06:48:54.104Z,5
2024-04-22T06:49:54.191Z,5
2024-04-22T06:50:54.364Z,5
2024-04-22T06:51:54.502Z,5
2024-04-22T06:52:54.630Z,5
2024-04-22T06:53:54.834Z,5
2024-04-22T06:54:54.929Z,5.5
2024-04-22T06:55:55.097Z,5.5
2024-04-22T06:56:55.217Z,5.5
2024-04-22T06:57:55.299Z,5.5
2024-04-22T06:58:55.523Z,5.5
2024-04-22T06:59:55.587Z,5.5
2024-04-22T07:00:55.815Z,5.5
2024-04-22T07:01:55.892Z,5.5
2024-04-22T07:02:56.097Z,5.5
2024-04-22T07:03:56.200Z,5.5
2024-04-22T07:04:56.491Z,5.5
2024-04-22T07:05:56.722Z,5.5
2024-04-22T07:06:56.660Z,5.5
2024-04-22T07:07:56.866Z,5.5
2024-04-22T07:08:57.147Z,5.5
2024-04-22T07:09:57.341Z,5.5
2024-04-22T07:10:57.455Z,5.5
2024-04-22T07:11:57.605Z,5.9
2024-04-22T07:12:57.815Z,5.9
2024-04-22T07:13:57.929Z,5.9
2024-04-22T07:14:58.039Z,5.9
2024-04-22T07:15:58.144Z,5.9
2024-04-22T07:16:58.492Z,5.9
2024-04-22T07:17:58.547Z,5.9
2024-04-22T07:18:58.623Z,5.9
2024-04-22T07:19:58.728Z,5.9
2024-04-22T07:20:58.791Z,5.9
2024-04-22T07:21:58.969Z,5.9
2024-04-22T07:22:59.051Z,5.9
2024-04-22T07:23:59.119Z,5.9
2024-04-22T07:25:03.270Z,5.9
2024-04-22T07:25:59.455Z,5.9
2024-04-22T07:26:59.954Z,5.9
2024-04-22T07:28:00.616Z,5.9
2024-04-22T07:28:59.804Z,6
2024-04-22T07:29:59.915Z,6
2024-04-22T07:31:00.024Z,6.4
2024-04-22T07:32:00.160Z,6.4
2024-04-22T07:33:00.371Z,6.4
2024-04-22T07:34:00.355Z,6.4
2024-04-22T07:35:00.541Z,6.4
2024-04-22T07:36:00.621Z,6.4
2024-04-22T07:37:00.728Z,6.4
2024-04-22T07:38:01.057Z,6.4
2024-04-22T07:39:01.218Z,6.4
2024-04-22T07:40:01.320Z,6.8
2024-04-22T07:41:01.426Z,6.8
2024-04-22T07:42:01.526Z,6.8
2024-04-22T07:43:01.619Z,6.8
2024-04-22T07:44:01.817Z,6.8
2024-04-22T07:45:01.907Z,7.3
2024-04-22T07:46:02.013Z,7.3
2024-04-22T07:47:02.135Z,7.3
2024-04-22T07:48:02.329Z,7.7
2024-04-22T07:49:02.388Z,7.7
2024-04-22T07:50:02.498Z,7.7
2024-04-22T07:51:02.617Z,7.7
2024-04-22T07:52:02.802Z,8.1
2024-04-22T07:53:02.904Z,8.1
2024-04-22T07:54:03.256Z,8.1
2024-04-22T07:55:03.453Z,8.1
2024-04-22T07:56:03.556Z,8.5
2024-04-22T07:57:03.672Z,8.5
2024-04-22T07:58:04.137Z,8.5
2024-04-22T07:59:04.246Z,8.5
2024-04-22T08:00:04.357Z,8.9
2024-04-22T08:01:04.493Z,8.9
2024-04-22T08:02:04.726Z,8.9
2024-04-22T08:03:05.109Z,8.9
2024-04-22T08:04:05.200Z,8.9
2024-04-22T08:05:05.358Z,8.9
2024-04-22T08:06:05.377Z,8.9
2024-04-22T08:07:05.868Z,8.9
2024-04-22T08:08:06.403Z,8.9
2024-04-22T08:09:06.931Z,8.9
2024-04-22T08:10:07.010Z,8.9
2024-04-22T08:11:07.193Z,8.9
2024-04-22T08:12:07.271Z,9.3
2024-04-22T08:13:07.327Z,9.3
2024-04-22T08:14:07.372Z,9.3
2024-04-22T08:15:07.368Z,9.3
2024-04-22T08:16:07.877Z,9.3
2024-04-22T08:17:08.443Z,9.3
2024-04-22T08:18:08.911Z,9.3
2024-04-22T08:19:08.863Z,9.3
2024-04-22T08:20:08.868Z,9.3
2024-04-22T08:21:09.367Z,9.3
2024-04-22T08:22:09.865Z,9.3
2024-04-22T08:23:09.869Z,9.6
2024-04-22T08:24:09.882Z,9.6
2024-04-22T08:25:10.507Z,9.6
2024-04-22T08:26:10.885Z,9.6
2024-04-22T08:27:11.394Z,9.6
2024-04-22T08:28:11.928Z,9.6
2024-04-22T08:29:12.411Z,9.6
2024-04-22T08:30:12.914Z,9.6
2024-04-22T08:31:13.457Z,10
2024-04-22T08:32:13.936Z,10
2024-04-22T08:33:14.503Z,10
2024-04-22T08:34:14.949Z,10
2024-04-22T08:35:15.461Z,10
2024-04-22T08:36:15.954Z,10
2024-04-22T08:37:16.518Z,10
2024-04-22T08:38:16.452Z,10
2024-04-22T08:39:16.571Z,10
2024-04-22T08:40:18.796Z,10
2024-04-22T08:41:17.029Z,10
2024-04-22T08:42:17.136Z,10
2024-04-22T08:43:17.167Z,10
2024-04-22T08:44:17.173Z,10
2024-04-22T08:45:17.206Z,10
2024-04-22T08:46:17.691Z,10
2024-04-22T08:52:36.943Z,10
2024-04-22T08:53:33.321Z,10.5
2024-04-22T08:54:33.563Z,10.5
2024-04-22T08:55:33.601Z,10.5
2024-04-22T08:56:33.723Z,10.5
2024-04-22T08:57:33.826Z,10.5
2024-04-22T08:58:34.053Z,10
2024-04-22T08:59:39.647Z,10
2024-04-22T09:00:34.277Z,10
2024-04-22T09:01:34.323Z,10
2024-04-22T09:02:34.436Z,10
2024-04-22T09:03:34.528Z,10
2024-04-22T09:04:34.841Z,10
2024-04-22T09:05:35.042Z,10
2024-04-22T09:06:35.005Z,10
2024-04-22T09:07:35.386Z,10
2024-04-22T09:08:35.284Z,10
2024-04-22T09:09:40.167Z,10
2024-04-22T09:10:50.014Z,10.1
2024-04-22T09:11:46.644Z,10.5
2024-04-22T09:12:36.030Z,10.5
2024-04-22T09:13:36.247Z,10.5
2024-04-22T09:14:36.608Z,10.5
2024-04-22T09:15:36.636Z,10.5
2024-04-22T09:16:36.962Z,10.5
2024-04-22T09:17:37.081Z,10.5
2024-04-22T09:18:37.330Z,10.5
2024-04-22T09:19:37.470Z,10.5
2024-04-22T09:20:37.597Z,10.5
2024-04-22T09:21:37.712Z,10.5
2024-04-22T09:22:37.905Z,10.5
2024-04-22T09:23:38.185Z,10.5
2024-04-22T09:24:38.344Z,10.1
2024-04-22T09:25:38.452Z,10
2024-04-22T09:26:38.557Z,10
2024-04-22T09:27:38.677Z,10
2024-04-22T09:28:39.033Z,10
2024-04-22T09:29:38.955Z,10
2024-04-22T09:30:39.062Z,10
2024-04-22T09:31:39.344Z,10
2024-04-22T09:32:39.445Z,10
2024-04-22T09:33:39.692Z,10
2024-04-22T09:34:39.702Z,10
2024-04-22T09:35:40.031Z,10
2024-04-22T09:36:39.857Z,10
2024-04-22T09:37:40.055Z,10
2024-04-22T09:38:45.652Z,10
2024-04-22T09:39:40.160Z,10
2024-04-22T09:40:40.389Z,10.5
2024-04-22T09:41:40.416Z,10.5
2024-04-22T09:42:40.761Z,10.5
2024-04-22T09:43:41.773Z,10.5
2024-04-22T09:44:41.103Z,10.5
2024-04-22T09:45:41.555Z,10.5
2024-04-22T09:46:41.669Z,10.5
2024-04-22T09:47:41.997Z,10.5
2024-04-22T09:48:42.008Z,10.5
2024-04-22T09:49:42.272Z,10.9
2024-04-22T09:50:42.253Z,10.9
2024-04-22T09:51:42.479Z,10.9
2024-04-22T09:52:42.681Z,10.9
2024-04-22T09:53:42.892Z,10.9
2024-04-22T09:54:42.959Z,10.9
2024-04-22T09:55:43.267Z,10.9
2024-04-22T09:56:46.013Z,10.9
2024-04-22T09:57:43.684Z,10.9
2024-04-22T09:58:43.880Z,10.9
2024-04-22T09:59:43.937Z,11.3
2024-04-22T10:00:44.120Z,11.3
2024-04-22T10:01:44.432Z,11.3
2024-04-22T10:02:44.729Z,11.3
2024-04-22T10:03:44.668Z,11.3
2024-04-22T10:04:44.867Z,11.3
2024-04-22T10:05:45.457Z,11.3
2024-04-22T10:06:45.266Z,11.3
2024-04-22T10:07:45.436Z,11.3
2024-04-22T10:08:45.588Z,11.3
2024-04-22T10:09:45.896Z,11.3
2024-04-22T10:10:46.097Z,11.3
2024-04-22T10:11:46.340Z,11.3
2024-04-22T10:12:46.302Z,11.8
2024-04-22T10:13:46.388Z,11.8
2024-04-22T10:14:46.515Z,11.8
2024-04-22T10:15:46.682Z,11.8
2024-04-22T10:16:46.761Z,11.8
2024-04-22T10:17:47.064Z,11.8
2024-04-22T10:18:47.178Z,11.8
2024-04-22T10:19:47.320Z,11.8
2024-04-22T10:20:47.286Z,11.8
2024-04-22T10:21:47.414Z,11.8
2024-04-22T10:22:47.591Z,11.8
2024-04-22T10:23:47.669Z,12.2
2024-04-22T10:24:49.512Z,12.2
2024-04-22T10:25:47.982Z,12.2
2024-04-22T10:26:52.744Z,12.2
2024-04-22T10:27:48.057Z,12.2
2024-04-22T10:28:48.273Z,12.2
2024-04-22T10:29:48.232Z,12.2
2024-04-22T10:30:48.384Z,12.6
2024-04-22T10:31:48.504Z,12.6
2024-04-22T10:32:48.616Z,12.6
2024-04-22T10:33:48.729Z,12.6
2024-04-22T10:34:48.994Z,12.6
2024-04-22T10:35:48.928Z,12.6
2024-04-22T10:36:51.735Z,12.6
2024-04-22T10:37:49.323Z,12.6
2024-04-22T10:38:49.407Z,12.6
2024-04-22T10:39:49.576Z,12.6
2024-04-22T10:40:49.800Z,12.6
2024-04-22T10:41:49.846Z,12.6
2024-04-22T10:42:51.616Z,12.6
2024-04-22T10:43:50.062Z,12.6
2024-04-22T10:44:50.162Z,12.6
2024-04-22T10:45:50.243Z,12.6
2024-04-22T10:46:50.337Z,12.6
2024-04-22T10:47:58.353Z,12.6
2024-04-22T10:48:52.345Z,12.6
2024-04-22T10:49:50.950Z,12.6
2024-04-22T10:50:51.071Z,12.2
2024-04-22T10:51:51.283Z,12.2
2024-04-22T10:52:51.558Z,12.2
2024-04-22T10:53:51.550Z,12.2
2024-04-22T10:54:53.206Z,12.2
2024-04-22T10:55:51.908Z,12.2
2024-04-22T10:56:51.935Z,12.2
2024-04-22T10:57:52.240Z,12.2
2024-04-22T10:58:52.365Z,12.2
2024-04-22T10:59:52.458Z,12.2
2024-04-22T11:00:52.676Z,12.2
2024-04-22T11:01:52.861Z,12.2
2024-04-22T11:02:52.965Z,12.2
2024-04-22T11:03:53.002Z,12.2
2024-04-22T11:04:53.025Z,12.2
2024-04-22T11:05:53.210Z,12.2
2024-04-22T11:06:53.328Z,12.2
2024-04-22T11:07:53.428Z,12.2
2024-04-22T11:08:53.536Z,12.2
2024-04-22T11:09:53.611Z,12.2
2024-04-22T11:10:53.802Z,12.2
2024-04-22T11:11:54.064Z,12.2
2024-04-22T11:12:54.023Z,12.2
2024-04-22T11:13:54.324Z,12.2
2024-04-22T11:14:54.392Z,12.2
2024-04-22T11:15:54.830Z,12.5
2024-04-22T11:16:54.986Z,12.6
2024-04-22T11:17:55.131Z,12.6
2024-04-22T11:21:10.611Z,12.6
2024-04-22T11:22:10.802Z,12.6
2024-04-22T11:23:10.936Z,12.6
2024-04-22T11:24:11.044Z,12.6
2024-04-22T11:25:11.207Z,12.6
2024-04-22T11:26:11.559Z,12.6
2024-04-22T11:27:11.633Z,12.6
2024-04-22T11:28:11.743Z,12.6
2024-04-22T11:29:11.847Z,12.6
2024-04-22T11:30:12.018Z,12.6
2024-04-22T11:31:12.491Z,12.6
2024-04-22T11:32:12.851Z,12.6
2024-04-22T11:33:13.018Z,12.6
2024-04-22T11:34:13.121Z,12.6
2024-04-22T11:35:13.213Z,12.6
2024-04-22T11:36:13.403Z,12.6
2024-04-22T11:37:13.591Z,12.6
2024-04-22T11:38:13.898Z,12.6
2024-04-22T11:39:14.128Z,12.6
2024-04-22T11:40:14.251Z,13
2024-04-22T11:41:14.289Z,13
2024-04-22T11:42:14.328Z,13
2024-04-22T11:43:14.446Z,13
2024-04-22T11:44:14.555Z,13
2024-04-22T11:45:14.723Z,13
2024-04-22T11:46:14.836Z,13
2024-04-22T11:47:14.957Z,13
2024-04-22T11:48:15.050Z,13
2024-04-22T11:49:15.154Z,13
2024-04-22T11:50:15.299Z,13
2024-04-22T11:51:15.422Z,13
2024-04-22T11:52:15.648Z,13
2024-04-22T11:53:20.648Z,13
2024-04-22T11:54:15.896Z,12.6
2024-04-22T11:55:16.287Z,12.6
2024-04-22T11:56:16.277Z,12.6
2024-04-22T11:57:16.531Z,12.6
2024-04-22T11:58:16.649Z,12.6
2024-04-22T11:59:17.513Z,12.6
2024-04-22T12:00:17.159Z,12.6
2024-04-22T12:01:17.277Z,12.6
2024-04-22T12:02:17.371Z,12.6
2024-04-22T12:03:20.453Z,12.6
2024-04-22T12:04:17.621Z,12.6
2024-04-22T12:05:17.755Z,12.6
2024-04-22T12:06:17.757Z,12.6
2024-04-22T12:07:17.936Z,12.6
2024-04-22T12:08:18.031Z,12.6
2024-04-22T12:09:18.199Z,13
2024-04-22T12:10:18.447Z,13
2024-04-22T12:11:18.563Z,13
2024-04-22T12:12:18.561Z,13
2024-04-22T12:13:19.143Z,13
2024-04-22T12:14:19.140Z,13
2024-04-22T12:15:19.659Z,13
2024-04-22T12:16:19.335Z,13
2024-04-22T12:17:19.576Z,13
2024-04-22T12:18:19.676Z,13
2024-04-22T12:19:20.027Z,13
2024-04-22T12:20:20.111Z,13
2024-04-22T12:21:20.257Z,13
2024-04-22T12:22:20.428Z,13
2024-04-22T12:23:20.482Z,13
2024-04-22T12:24:20.587Z,13
2024-04-22T12:25:20.720Z,13
2024-04-22T12:26:20.821Z,13
2024-04-22T12:27:21.168Z,13.3
2024-04-22T12:28:22.093Z,13.3
2024-04-22T12:29:21.381Z,13.3
2024-04-22T12:30:21.662Z,13.3
2024-04-22T12:31:21.881Z,13.3
2024-04-22T12:32:22.009Z,13.3
2024-04-22T12:33:22.272Z,13.3
2024-04-22T12:34:22.264Z,13.3
2024-04-22T12:35:22.455Z,13.3
2024-04-22T12:36:22.503Z,13.3
2024-04-22T12:37:22.647Z,13.3
2024-04-22T12:38:22.825Z,13.3
2024-04-22T12:39:22.933Z,13.3
2024-04-22T12:40:23.329Z,13.3
2024-04-22T12:41:23.476Z,13.3
2024-04-22T12:42:23.565Z,13.3
2024-04-22T12:43:23.847Z,13.3
2024-04-22T12:44:23.885Z,13.3
2024-04-22T12:45:24.005Z,13.3
2024-04-22T12:46:24.250Z,13.3
2024-04-22T12:47:24.472Z,13.3
2024-04-22T12:48:24.519Z,13
2024-04-22T12:49:24.793Z,13
2024-04-22T12:50:24.869Z,13
2024-04-22T12:51:24.950Z,13
2024-04-22T12:52:25.085Z,13
2024-04-22T12:53:25.180Z,13
2024-04-22T12:54:25.812Z,13
2024-04-22T12:55:25.467Z,13
2024-04-22T12:56:25.549Z,13
2024-04-22T12:57:25.724Z,13
2024-04-22T12:58:25.831Z,13
2024-04-22T12:59:25.959Z,13
2024-04-22T13:00:26.805Z,13
2024-04-22T13:01:26.192Z,13
2024-04-22T13:02:26.314Z,13
2024-04-22T13:03:26.423Z,13
2024-04-22T13:04:26.653Z,13
2024-04-22T13:05:26.843Z,13
2024-04-22T13:06:26.947Z,13
2024-04-22T13:07:27.097Z,13
2024-04-22T13:08:27.212Z,12.6
2024-04-22T13:09:27.321Z,12.6
2024-04-22T13:10:27.452Z,12.6
2024-04-22T13:11:27.641Z,12.6
2024-04-22T13:12:27.948Z,12.2
2024-04-22T13:13:28.092Z,12.2
2024-04-22T13:14:28.119Z,12.2
2024-04-22T13:15:28.271Z,12.2
2024-04-22T13:16:28.523Z,11.8
2024-04-22T13:17:28.741Z,11.8
2024-04-22T13:18:28.864Z,11.8
2024-04-22T13:19:29.008Z,11.8
2024-04-22T13:20:29.079Z,11.8
2024-04-22T13:21:29.273Z,11.8
2024-04-22T13:22:29.556Z,11.8
2024-04-22T13:23:29.554Z,11.8
2024-04-22T13:24:29.669Z,11.3
2024-04-22T13:25:29.790Z,11.3
2024-04-22T13:26:29.876Z,11.3
2024-04-22T13:27:30.167Z,11.3
2024-04-22T13:28:30.525Z,11.3
2024-04-22T13:29:30.752Z,11.3
2024-04-22T13:30:31.241Z,11.1
2024-04-22T13:31:36.209Z,10.9
2024-04-22T13:32:31.143Z,10.9
2024-04-22T13:33:31.240Z,10.9
2024-04-22T13:34:31.378Z,10.9
2024-04-22T13:35:31.498Z,10.9
2024-04-22T13:36:31.865Z,10.9
2024-04-22T13:37:31.976Z,10.9
2024-04-22T13:38:32.220Z,10.9
2024-04-22T13:39:32.308Z,10.9
2024-04-22T13:40:32.461Z,10.9
2024-04-22T13:41:32.538Z,10.9
2024-04-22T13:42:34.788Z,10.9
2024-04-22T13:43:32.981Z,10.9
2024-04-22T13:44:33.033Z,10.9
2024-04-22T13:45:33.152Z,10.9
2024-04-22T13:46:33.259Z,10.9
2024-04-22T13:47:33.506Z,10.9
2024-04-22T13:48:33.575Z,10.9
2024-04-22T13:49:33.880Z,10.9
2024-04-22T13:50:34.029Z,10.9
2024-04-22T13:51:34.289Z,10.9
2024-04-22T13:52:34.470Z,11.3
2024-04-22T13:53:34.739Z,11.3
2024-04-22T13:54:34.667Z,11.3
2024-04-22T13:55:34.833Z,11.3